sensor_id;sensor_type;location;lat;lon;timestamp;pressure;altitude;pressure_sealevel;temperature;humidity
63715;BME280;49858;48.956;9.076;2023-04-16T00:00:57;98689.19;;;10.27;100.00
63715;BME280;49858;48.956;9.076;2023-04-16T00:03:25;98680.97;;;10.14;100.00
63715;BME280;49858;48.956;9.076;2023-04-16T00:05:53;98684.38;;;10.39;100.00
63715;BME280;49858;48.956;9.076;2023-04-16T00:08:22;98678.53;;;10.41;100.00
63715;BME280;49858;48.956;9.076;2023-04-16T00:10:52;98684.13;;;10.44;100.00
63715;BME280;49858;48.956;9.076;2023-04-16T00:13:20;98687.41;;;10.34;100.00
63715;BME280;49858;48.956;9.076;2023-04-16T00:15:49;98692.72;;;10.27;100.00
63715;BME280;49858;48.956;9.076;2023-04-16T00:18:17;98682.69;;;10.35;100.00
63715;BME280;49858;48.956;9.076;2023-04-16T00:20:48;98686.19;;;10.32;100.00
63715;BME280;49858;48.956;9.076;2023-04-16T00:23:19;98688.63;;;10.21;100.00
63715;BME280;49858;48.956;9.076;2023-04-16T00:25:49;98683.94;;;10.37;100.00
63715;BME280;49858;48.956;9.076;2023-04-16T00:28:20;98693.56;;;9.99;100.00
63715;BME280;49858;48.956;9.076;2023-04-16T00:30:48;98688.91;;;10.63;100.00
63715;BME280;49858;48.956;9.076;2023-04-16T00:33:16;98684.47;;;10.59;100.00
63715;BME280;49858;48.956;9.076;2023-04-16T00:35:45;98683.22;;;10.56;100.00
63715;BME280;49858;48.956;9.076;2023-04-16T00:38:13;98683.31;;;10.28;100.00
63715;BME280;49858;48.956;9.076;2023-04-16T00:40:41;98694.34;;;10.00;100.00
63715;BME280;49858;48.956;9.076;2023-04-16T00:43:09;98694.34;;;10.00;100.00
63715;BME280;49858;48.956;9.076;2023-04-16T00:45:38;98699.84;;;10.16;100.00
63715;BME280;49858;48.956;9.076;2023-04-16T00:48:06;98700.53;;;10.25;100.00
63715;BME280;49858;48.956;9.076;2023-04-16T00:50:36;98699.47;;;10.30;100.00
63715;BME280;49858;48.956;9.076;2023-04-16T00:53:04;98694.78;;;10.46;100.00
63715;BME280;49858;48.956;9.076;2023-04-16T00:55:32;98700.63;;;9.85;100.00
63715;BME280;49858;48.956;9.076;2023-04-16T00:58:00;98702.94;;;10.27;100.00
63715;BME280;49858;48.956;9.076;2023-04-16T01:00:27;98695.50;;;10.59;100.00
63715;BME280;49858;48.956;9.076;2023-04-16T01:02:57;98692.63;;;10.39;100.00
63715;BME280;49858;48.956;9.076;2023-04-16T01:05:25;98687.66;;;10.61;100.00
63715;BME280;49858;48.956;9.076;2023-04-16T01:07:57;98693.78;;;10.70;100.00
63715;BME280;49858;48.956;9.076;2023-04-16T01:10:25;98694.06;;;11.00;100.00
63715;BME280;49858;48.956;9.076;2023-04-16T01:12:53;98700.25;;;10.62;100.00
63715;BME280;49858;48.956;9.076;2023-04-16T01:15:25;98697.22;;;10.83;100.00
63715;BME280;49858;48.956;9.076;2023-04-16T01:17:53;98690.38;;;10.92;100.00
63715;BME280;49858;48.956;9.076;2023-04-16T01:20:23;98690.16;;;10.34;100.00
63715;BME280;49858;48.956;9.076;2023-04-16T01:22:52;98701.69;;;10.24;100.00
63715;BME280;49858;48.956;9.076;2023-04-16T01:25:20;98700.72;;;10.32;100.00
63715;BME280;49858;48.956;9.076;2023-04-16T01:27:50;98699.47;;;10.45;100.00
63715;BME280;49858;48.956;9.076;2023-04-16T01:30:20;98697.88;;;10.44;100.00
63715;BME280;49858;48.956;9.076;2023-04-16T01:32:59;98708.59;;;10.65;100.00
63715;BME280;49858;48.956;9.076;2023-04-16T01:35:28;98705.19;;;9.93;100.00
63715;BME280;49858;48.956;9.076;2023-04-16T01:37:58;98709.31;;;10.78;100.00
63715;BME280;49858;48.956;9.076;2023-04-16T01:40:25;98701.22;;;10.54;100.00
63715;BME280;49858;48.956;9.076;2023-04-16T01:42:53;98702.47;;;10.56;100.00
63715;BME280;49858;48.956;9.076;2023-04-16T01:45:21;98704.53;;;10.59;100.00
63715;BME280;49858;48.956;9.076;2023-04-16T01:47:49;98698.13;;;10.71;100.00
63715;BME280;49858;48.956;9.076;2023-04-16T01:50:17;98717.09;;;10.13;100.00
63715;BME280;49858;48.956;9.076;2023-04-16T01:52:45;98708.22;;;10.83;100.00
63715;BME280;49858;48.956;9.076;2023-04-16T01:55:15;98705.66;;;10.74;100.00
63715;BME280;49858;48.956;9.076;2023-04-16T01:57:42;98706.47;;;10.74;100.00
63715;BME280;49858;48.956;9.076;2023-04-16T02:00:12;98710.34;;;10.89;100.00
63715;BME280;49858;48.956;9.076;2023-04-16T02:02:45;98711.72;;;10.64;100.00
63715;BME280;49858;48.956;9.076;2023-04-16T02:05:22;98710.03;;;10.59;100.00
63715;BME280;49858;48.956;9.076;2023-04-16T02:07:50;98705.22;;;10.24;100.00
63715;BME280;49858;48.956;9.076;2023-04-16T02:10:20;98718.00;;;10.33;100.00
63715;BME280;49858;48.956;9.076;2023-04-16T02:12:48;98714.56;;;10.36;100.00
63715;BME280;49858;48.956;9.076;2023-04-16T02:15:16;98724.84;;;10.11;100.00
63715;BME280;49858;48.956;9.076;2023-04-16T02:17:44;98718.38;;;10.47;100.00
63715;BME280;49858;48.956;9.076;2023-04-16T02:20:14;98711.44;;;10.37;100.00
63715;BME280;49858;48.956;9.076;2023-04-16T02:22:51;98715.44;;;10.56;100.00
63715;BME280;49858;48.956;9.076;2023-04-16T02:25:23;98724.13;;;10.26;100.00
63715;BME280;49858;48.956;9.076;2023-04-16T02:27:54;98725.00;;;10.30;100.00
63715;BME280;49858;48.956;9.076;2023-04-16T02:30:36;98749.03;;;10.49;100.00
63715;BME280;49858;48.956;9.076;2023-04-16T02:33:06;98722.53;;;10.57;100.00
63715;BME280;49858;48.956;9.076;2023-04-16T02:35:36;98719.94;;;10.80;100.00
63715;BME280;49858;48.956;9.076;2023-04-16T02:38:05;98728.81;;;10.57;100.00
63715;BME280;49858;48.956;9.076;2023-04-16T02:40:35;98712.38;;;10.77;100.00
63715;BME280;49858;48.956;9.076;2023-04-16T02:43:03;98724.41;;;10.37;100.00
63715;BME280;49858;48.956;9.076;2023-04-16T02:45:31;98720.31;;;10.31;100.00
63715;BME280;49858;48.956;9.076;2023-04-16T02:48:03;98725.38;;;10.44;100.00
63715;BME280;49858;48.956;9.076;2023-04-16T02:50:32;98734.06;;;10.46;100.00
63715;BME280;49858;48.956;9.076;2023-04-16T02:53:00;98733.59;;;10.29;100.00
63715;BME280;49858;48.956;9.076;2023-04-16T02:55:29;98735.25;;;10.17;100.00
63715;BME280;49858;48.956;9.076;2023-04-16T02:57:58;98730.44;;;10.42;100.00
63715;BME280;49858;48.956;9.076;2023-04-16T03:00:26;98722.44;;;10.69;100.00
63715;BME280;49858;48.956;9.076;2023-04-16T03:02:54;98728.94;;;10.45;100.00
63715;BME280;49858;48.956;9.076;2023-04-16T03:05:23;98737.22;;;10.17;100.00
63715;BME280;49858;48.956;9.076;2023-04-16T03:07:50;98729.19;;;10.71;100.00
63715;BME280;49858;48.956;9.076;2023-04-16T03:10:22;98732.09;;;10.63;100.00
63715;BME280;49858;48.956;9.076;2023-04-16T03:12:50;98740.50;;;10.22;100.00
63715;BME280;49858;48.956;9.076;2023-04-16T03:15:19;98735.75;;;10.51;100.00
63715;BME280;49858;48.956;9.076;2023-04-16T03:17:47;98744.63;;;10.44;100.00
63715;BME280;49858;48.956;9.076;2023-04-16T03:20:15;98736.88;;;10.82;100.00
63715;BME280;49858;48.956;9.076;2023-04-16T03:22:47;98736.91;;;10.66;100.00
63715;BME280;49858;48.956;9.076;2023-04-16T03:25:15;98748.09;;;10.73;100.00
63715;BME280;49858;48.956;9.076;2023-04-16T03:27:43;98742.94;;;10.71;100.00
63715;BME280;49858;48.956;9.076;2023-04-16T03:30:13;98749.25;;;11.23;100.00
63715;BME280;49858;48.956;9.076;2023-04-16T03:32:43;98737.28;;;10.64;100.00
63715;BME280;49858;48.956;9.076;2023-04-16T03:35:11;98745.31;;;10.57;100.00
63715;BME280;49858;48.956;9.076;2023-04-16T03:37:40;98746.38;;;10.84;100.00
63715;BME280;49858;48.956;9.076;2023-04-16T03:40:08;98747.75;;;11.10;100.00
63715;BME280;49858;48.956;9.076;2023-04-16T03:42:36;98755.00;;;10.67;100.00
63715;BME280;49858;48.956;9.076;2023-04-16T03:45:05;98753.13;;;10.39;100.00
63715;BME280;49858;48.956;9.076;2023-04-16T03:47:36;98759.28;;;10.20;100.00
63715;BME280;49858;48.956;9.076;2023-04-16T03:50:06;98759.94;;;10.30;100.00
63715;BME280;49858;48.956;9.076;2023-04-16T03:52:35;98766.41;;;9.93;100.00
63715;BME280;49858;48.956;9.076;2023-04-16T03:55:03;98776.19;;;10.35;100.00
63715;BME280;49858;48.956;9.076;2023-04-16T03:57:31;98760.94;;;10.53;100.00
63715;BME280;49858;48.956;9.076;2023-04-16T04:00:06;98762.34;;;10.94;100.00
63715;BME280;49858;48.956;9.076;2023-04-16T04:02:48;98757.41;;;10.37;100.00
63715;BME280;49858;48.956;9.076;2023-04-16T04:05:19;98761.38;;;10.39;100.00
63715;BME280;49858;48.956;9.076;2023-04-16T04:07:48;98762.91;;;10.09;100.00
63715;BME280;49858;48.956;9.076;2023-04-16T04:10:16;98769.47;;;10.20;100.00
63715;BME280;49858;48.956;9.076;2023-04-16T04:12:44;98763.53;;;10.18;100.00
63715;BME280;49858;48.956;9.076;2023-04-16T04:15:12;98768.19;;;9.73;100.00
63715;BME280;49858;48.956;9.076;2023-04-16T04:17:41;98782.31;;;10.16;100.00
63715;BME280;49858;48.956;9.076;2023-04-16T04:20:10;98774.06;;;10.28;100.00
63715;BME280;49858;48.956;9.076;2023-04-16T04:22:43;98778.50;;;10.33;100.00
63715;BME280;49858;48.956;9.076;2023-04-16T04:25:12;98774.44;;;10.74;100.00
63715;BME280;49858;48.956;9.076;2023-04-16T04:27:42;98770.44;;;10.87;100.00
63715;BME280;49858;48.956;9.076;2023-04-16T04:30:10;98773.81;;;10.65;100.00
63715;BME280;49858;48.956;9.076;2023-04-16T04:32:42;98782.34;;;10.60;100.00
63715;BME280;49858;48.956;9.076;2023-04-16T04:35:10;98777.63;;;10.76;100.00
63715;BME280;49858;48.956;9.076;2023-04-16T04:37:40;98782.34;;;10.60;100.00
63715;BME280;49858;48.956;9.076;2023-04-16T04:40:19;98784.56;;;10.70;100.00
63715;BME280;49858;48.956;9.076;2023-04-16T04:42:48;98791.66;;;10.71;100.00
63715;BME280;49858;48.956;9.076;2023-04-16T04:45:16;98786.78;;;10.64;100.00
63715;BME280;49858;48.956;9.076;2023-04-16T04:47:43;98797.59;;;10.57;100.00
63715;BME280;49858;48.956;9.076;2023-04-16T04:50:11;98796.19;;;10.79;100.00
63715;BME280;49858;48.956;9.076;2023-04-16T04:52:39;98796.44;;;10.58;100.00
63715;BME280;49858;48.956;9.076;2023-04-16T04:55:08;98801.38;;;10.09;100.00
63715;BME280;49858;48.956;9.076;2023-04-16T04:57:37;98805.88;;;10.29;100.00
63715;BME280;49858;48.956;9.076;2023-04-16T05:00:09;98805.63;;;10.34;100.00
63715;BME280;49858;48.956;9.076;2023-04-16T05:02:42;98810.00;;;10.35;100.00
63715;BME280;49858;48.956;9.076;2023-04-16T05:05:11;98805.94;;;10.61;100.00
63715;BME280;49858;48.956;9.076;2023-04-16T05:07:38;98819.56;;;10.13;100.00
63715;BME280;49858;48.956;9.076;2023-04-16T05:10:08;98821.53;;;10.13;100.00
63715;BME280;49858;48.956;9.076;2023-04-16T05:12:39;98817.22;;;10.56;100.00
63715;BME280;49858;48.956;9.076;2023-04-16T05:15:08;98825.59;;;10.31;100.00
63715;BME280;49858;48.956;9.076;2023-04-16T05:17:36;98829.97;;;10.20;100.00
63715;BME280;49858;48.956;9.076;2023-04-16T05:20:04;98826.91;;;10.65;100.00
63715;BME280;49858;48.956;9.076;2023-04-16T05:22:32;98830.06;;;10.23;100.00
63715;BME280;49858;48.956;9.076;2023-04-16T05:25:00;98838.06;;;10.57;100.00
63715;BME280;49858;48.956;9.076;2023-04-16T05:27:29;98839.06;;;10.08;100.00
63715;BME280;49858;48.956;9.076;2023-04-16T05:29:58;98840.94;;;10.20;100.00
63715;BME280;49858;48.956;9.076;2023-04-16T05:32:26;98844.06;;;10.46;100.00
63715;BME280;49858;48.956;9.076;2023-04-16T05:34:57;98838.03;;;10.41;100.00
63715;BME280;49858;48.956;9.076;2023-04-16T05:37:25;98835.06;;;10.93;100.00
63715;BME280;49858;48.956;9.076;2023-04-16T05:39:53;98830.94;;;10.40;100.00
63715;BME280;49858;48.956;9.076;2023-04-16T05:42:20;98844.13;;;10.78;100.00
63715;BME280;49858;48.956;9.076;2023-04-16T05:44:49;98843.81;;;10.67;100.00
63715;BME280;49858;48.956;9.076;2023-04-16T05:47:18;98856.53;;;10.72;100.00
63715;BME280;49858;48.956;9.076;2023-04-16T05:49:47;98853.00;;;10.87;100.00
63715;BME280;49858;48.956;9.076;2023-04-16T05:52:14;98854.78;;;10.95;100.00
63715;BME280;49858;48.956;9.076;2023-04-16T05:54:42;98862.28;;;10.67;100.00
63715;BME280;49858;48.956;9.076;2023-04-16T05:57:10;98865.91;;;10.55;100.00
63715;BME280;49858;48.956;9.076;2023-04-16T05:59:38;98878.81;;;10.67;100.00
63715;BME280;49858;48.956;9.076;2023-04-16T06:02:05;98863.19;;;10.87;100.00
63715;BME280;49858;48.956;9.076;2023-04-16T06:04:35;98868.19;;;10.37;100.00
63715;BME280;49858;48.956;9.076;2023-04-16T06:07:03;98868.25;;;10.69;100.00
63715;BME280;49858;48.956;9.076;2023-04-16T06:09:32;98867.47;;;10.12;100.00
63715;BME280;49858;48.956;9.076;2023-04-16T06:12:00;98868.34;;;9.88;100.00
63715;BME280;49858;48.956;9.076;2023-04-16T06:14:28;98875.47;;;10.17;100.00
63715;BME280;49858;48.956;9.076;2023-04-16T06:16:55;98877.19;;;10.10;100.00
63715;BME280;49858;48.956;9.076;2023-04-16T06:19:23;98870.91;;;10.65;100.00
63715;BME280;49858;48.956;9.076;2023-04-16T06:21:53;98874.66;;;10.17;100.00
63715;BME280;49858;48.956;9.076;2023-04-16T06:24:21;98870.38;;;10.32;100.00
63715;BME280;49858;48.956;9.076;2023-04-16T06:26:48;98872.88;;;10.37;100.00
63715;BME280;49858;48.956;9.076;2023-04-16T06:29:16;98875.72;;;10.84;100.00
63715;BME280;49858;48.956;9.076;2023-04-16T06:31:44;98873.94;;;10.20;100.00
63715;BME280;49858;48.956;9.076;2023-04-16T06:34:12;98876.88;;;10.39;100.00
63715;BME280;49858;48.956;9.076;2023-04-16T06:36:40;98882.63;;;9.94;100.00
63715;BME280;49858;48.956;9.076;2023-04-16T06:39:09;98883.19;;;10.40;100.00
63715;BME280;49858;48.956;9.076;2023-04-16T06:41:37;98884.38;;;10.55;100.00
63715;BME280;49858;48.956;9.076;2023-04-16T06:44:05;98887.00;;;10.35;100.00
63715;BME280;49858;48.956;9.076;2023-04-16T06:46:32;98882.97;;;10.61;100.00
63715;BME280;49858;48.956;9.076;2023-04-16T06:49:00;98881.72;;;10.30;100.00
63715;BME280;49858;48.956;9.076;2023-04-16T06:51:28;98888.78;;;10.43;100.00
63715;BME280;49858;48.956;9.076;2023-04-16T06:53:56;98896.63;;;10.57;100.00
63715;BME280;49858;48.956;9.076;2023-04-16T06:56:25;98897.22;;;10.94;100.00
63715;BME280;49858;48.956;9.076;2023-04-16T06:58:53;98898.47;;;10.53;100.00
63715;BME280;49858;48.956;9.076;2023-04-16T07:01:23;98907.97;;;10.56;100.00
63715;BME280;49858;48.956;9.076;2023-04-16T07:03:51;98900.84;;;10.83;100.00
63715;BME280;49858;48.956;9.076;2023-04-16T07:06:22;98898.91;;;10.83;100.00
63715;BME280;49858;48.956;9.076;2023-04-16T07:08:50;98895.03;;;10.72;100.00
63715;BME280;49858;48.956;9.076;2023-04-16T07:11:18;98898.78;;;10.36;100.00
63715;BME280;49858;48.956;9.076;2023-04-16T07:13:47;98894.88;;;10.65;100.00
63715;BME280;49858;48.956;9.076;2023-04-16T07:16:19;98895.78;;;11.00;100.00
63715;BME280;49858;48.956;9.076;2023-04-16T07:18:47;98898.53;;;11.00;100.00
63715;BME280;49858;48.956;9.076;2023-04-16T07:21:15;98890.19;;;10.81;100.00
63715;BME280;49858;48.956;9.076;2023-04-16T07:23:43;98900.22;;;10.89;100.00
63715;BME280;49858;48.956;9.076;2023-04-16T07:26:14;98902.81;;;10.82;100.00
63715;BME280;49858;48.956;9.076;2023-04-16T07:28:41;98900.34;;;10.93;100.00
63715;BME280;49858;48.956;9.076;2023-04-16T07:31:11;98915.75;;;10.82;100.00
63715;BME280;49858;48.956;9.076;2023-04-16T07:33:38;98908.59;;;10.93;100.00
63715;BME280;49858;48.956;9.076;2023-04-16T07:36:06;98910.91;;;11.22;100.00
63715;BME280;49858;48.956;9.076;2023-04-16T07:38:34;98916.31;;;11.03;100.00
63715;BME280;49858;48.956;9.076;2023-04-16T07:41:04;98925.63;;;11.14;100.00
63715;BME280;49858;48.956;9.076;2023-04-16T07:43:32;98924.31;;;10.92;100.00
63715;BME280;49858;48.956;9.076;2023-04-16T07:46:00;98928.72;;;10.81;100.00
63715;BME280;49858;48.956;9.076;2023-04-16T07:48:29;98923.44;;;11.36;100.00
63715;BME280;49858;48.956;9.076;2023-04-16T07:50:57;98919.13;;;10.91;100.00
63715;BME280;49858;48.956;9.076;2023-04-16T07:53:25;98926.16;;;10.88;100.00
63715;BME280;49858;48.956;9.076;2023-04-16T07:55:53;98920.97;;;10.71;100.00
63715;BME280;49858;48.956;9.076;2023-04-16T07:58:20;98920.56;;;10.85;100.00
63715;BME280;49858;48.956;9.076;2023-04-16T08:00:48;98930.22;;;10.79;100.00
63715;BME280;49858;48.956;9.076;2023-04-16T08:03:16;98931.31;;;10.62;100.00
63715;BME280;49858;48.956;9.076;2023-04-16T08:05:46;98936.94;;;10.37;100.00
63715;BME280;49858;48.956;9.076;2023-04-16T08:08:14;98938.09;;;10.64;100.00
63715;BME280;49858;48.956;9.076;2023-04-16T08:10:42;98947.38;;;10.32;100.00
63715;BME280;49858;48.956;9.076;2023-04-16T08:13:10;98940.44;;;10.78;100.00
63715;BME280;49858;48.956;9.076;2023-04-16T08:15:38;98947.00;;;10.45;100.00
63715;BME280;49858;48.956;9.076;2023-04-16T08:18:06;98950.41;;;10.55;100.00
63715;BME280;49858;48.956;9.076;2023-04-16T08:20:38;98955.25;;;10.73;100.00
63715;BME280;49858;48.956;9.076;2023-04-16T08:23:07;98950.13;;;10.88;100.00
63715;BME280;49858;48.956;9.076;2023-04-16T08:25:35;98953.56;;;10.85;100.00
63715;BME280;49858;48.956;9.076;2023-04-16T08:28:03;98965.50;;;10.61;100.00
63715;BME280;49858;48.956;9.076;2023-04-16T08:30:32;98964.44;;;11.09;100.00
63715;BME280;49858;48.956;9.076;2023-04-16T08:33:00;98969.84;;;10.62;100.00
63715;BME280;49858;48.956;9.076;2023-04-16T08:35:28;98960.91;;;10.65;100.00
63715;BME280;49858;48.956;9.076;2023-04-16T08:37:55;98962.44;;;11.22;100.00
63715;BME280;49858;48.956;9.076;2023-04-16T08:40:30;98969.34;;;10.72;100.00
63715;BME280;49858;48.956;9.076;2023-04-16T08:43:04;98978.28;;;10.41;100.00
63715;BME280;49858;48.956;9.076;2023-04-16T08:45:33;98972.69;;;10.93;100.00
63715;BME280;49858;48.956;9.076;2023-04-16T08:48:04;98977.19;;;10.86;100.00
63715;BME280;49858;48.956;9.076;2023-04-16T08:50:32;98979.75;;;10.51;100.00
63715;BME280;49858;48.956;9.076;2023-04-16T08:53:03;98981.88;;;10.85;100.00
63715;BME280;49858;48.956;9.076;2023-04-16T08:55:36;98988.59;;;10.72;100.00
63715;BME280;49858;48.956;9.076;2023-04-16T08:58:11;98985.16;;;11.19;100.00
63715;BME280;49858;48.956;9.076;2023-04-16T09:00:40;98988.22;;;11.45;100.00
63715;BME280;49858;48.956;9.076;2023-04-16T09:03:12;98983.66;;;11.06;100.00
63715;BME280;49858;48.956;9.076;2023-04-16T09:05:41;98980.91;;;11.37;100.00
63715;BME280;49858;48.956;9.076;2023-04-16T09:08:09;98989.16;;;10.78;100.00
63715;BME280;49858;48.956;9.076;2023-04-16T09:10:40;98987.84;;;11.47;100.00
63715;BME280;49858;48.956;9.076;2023-04-16T09:13:09;98994.31;;;11.23;100.00
63715;BME280;49858;48.956;9.076;2023-04-16T09:15:40;98995.16;;;11.39;100.00
63715;BME280;49858;48.956;9.076;2023-04-16T09:18:09;98988.38;;;11.37;100.00
63715;BME280;49858;48.956;9.076;2023-04-16T09:20:38;98988.25;;;11.02;100.00
63715;BME280;49858;48.956;9.076;2023-04-16T09:23:06;99000.81;;;11.31;100.00
63715;BME280;49858;48.956;9.076;2023-04-16T09:25:33;98999.13;;;11.26;100.00
63715;BME280;49858;48.956;9.076;2023-04-16T09:28:04;99006.00;;;10.76;100.00
63715;BME280;49858;48.956;9.076;2023-04-16T09:30:32;99007.31;;;11.54;100.00
63715;BME280;49858;48.956;9.076;2023-04-16T09:33:13;99002.59;;;11.55;100.00
63715;BME280;49858;48.956;9.076;2023-04-16T09:35:45;99000.22;;;11.53;100.00
63715;BME280;49858;48.956;9.076;2023-04-16T09:38:15;99009.63;;;11.52;100.00
63715;BME280;49858;48.956;9.076;2023-04-16T09:40:43;99003.75;;;11.69;100.00
63715;BME280;49858;48.956;9.076;2023-04-16T09:43:16;99007.19;;;11.19;100.00
63715;BME280;49858;48.956;9.076;2023-04-16T09:45:48;99014.47;;;11.27;100.00
63715;BME280;49858;48.956;9.076;2023-04-16T09:48:30;99013.81;;;10.74;100.00
63715;BME280;49858;48.956;9.076;2023-04-16T09:50:59;99016.50;;;11.14;100.00
63715;BME280;49858;48.956;9.076;2023-04-16T09:53:30;99011.16;;;11.06;100.00
63715;BME280;49858;48.956;9.076;2023-04-16T09:55:59;99022.31;;;11.57;100.00
63715;BME280;49858;48.956;9.076;2023-04-16T09:58:29;99017.56;;;12.01;100.00
63715;BME280;49858;48.956;9.076;2023-04-16T10:00:59;99023.69;;;11.03;100.00
63715;BME280;49858;48.956;9.076;2023-04-16T10:03:28;99026.63;;;10.82;100.00
63715;BME280;49858;48.956;9.076;2023-04-16T10:05:59;99031.72;;;10.68;100.00
63715;BME280;49858;48.956;9.076;2023-04-16T10:08:27;99026.25;;;10.56;100.00
63715;BME280;49858;48.956;9.076;2023-04-16T10:10:56;99033.50;;;10.88;100.00
63715;BME280;49858;48.956;9.076;2023-04-16T10:13:24;99034.41;;;11.36;100.00
63715;BME280;49858;48.956;9.076;2023-04-16T10:15:56;99042.94;;;11.03;100.00
63715;BME280;49858;48.956;9.076;2023-04-16T10:18:24;99047.75;;;11.34;100.00
63715;BME280;49858;48.956;9.076;2023-04-16T10:20:52;99045.69;;;11.31;100.00
63715;BME280;49858;48.956;9.076;2023-04-16T10:23:21;99049.06;;;11.56;100.00
63715;BME280;49858;48.956;9.076;2023-04-16T10:25:49;99046.78;;;10.86;100.00
63715;BME280;49858;48.956;9.076;2023-04-16T10:28:17;99046.28;;;10.68;100.00
63715;BME280;49858;48.956;9.076;2023-04-16T10:30:47;99053.13;;;9.97;100.00
63715;BME280;49858;48.956;9.076;2023-04-16T10:33:21;99050.88;;;10.64;100.00
63715;BME280;49858;48.956;9.076;2023-04-16T10:35:49;99052.41;;;10.13;100.00
63715;BME280;49858;48.956;9.076;2023-04-16T10:38:32;99059.66;;;9.93;100.00
63715;BME280;49858;48.956;9.076;2023-04-16T10:41:02;99058.03;;;10.16;100.00
63715;BME280;49858;48.956;9.076;2023-04-16T10:43:31;99056.88;;;10.42;100.00
63715;BME280;49858;48.956;9.076;2023-04-16T10:46:18;99059.75;;;10.09;100.00
63715;BME280;49858;48.956;9.076;2023-04-16T10:48:48;99061.50;;;10.78;100.00
63715;BME280;49858;48.956;9.076;2023-04-16T10:51:28;99048.94;;;10.65;100.00
63715;BME280;49858;48.956;9.076;2023-04-16T10:54:01;99053.84;;;10.99;100.00
63715;BME280;49858;48.956;9.076;2023-04-16T10:56:31;99049.84;;;10.97;100.00
63715;BME280;49858;48.956;9.076;2023-04-16T10:59:03;99056.09;;;11.10;100.00
63715;BME280;49858;48.956;9.076;2023-04-16T11:01:33;99056.06;;;11.22;100.00
63715;BME280;49858;48.956;9.076;2023-04-16T11:04:26;99050.53;;;10.66;100.00
63715;BME280;49858;48.956;9.076;2023-04-16T11:07:03;99052.25;;;11.26;100.00
63715;BME280;49858;48.956;9.076;2023-04-16T11:09:51;99059.91;;;11.05;100.00
63715;BME280;49858;48.956;9.076;2023-04-16T11:12:20;99055.53;;;10.76;100.00
63715;BME280;49858;48.956;9.076;2023-04-16T11:14:50;99063.41;;;11.18;100.00
63715;BME280;49858;48.956;9.076;2023-04-16T11:17:18;99054.53;;;10.68;100.00
63715;BME280;49858;48.956;9.076;2023-04-16T11:19:47;99054.34;;;10.89;100.00
63715;BME280;49858;48.956;9.076;2023-04-16T11:22:19;99058.19;;;11.00;100.00
63715;BME280;49858;48.956;9.076;2023-04-16T11:24:52;99057.06;;;11.30;100.00
63715;BME280;49858;48.956;9.076;2023-04-16T11:27:20;99066.53;;;11.16;100.00
63715;BME280;49858;48.956;9.076;2023-04-16T11:29:56;99057.91;;;10.90;100.00
63715;BME280;49858;48.956;9.076;2023-04-16T11:32:24;99062.47;;;11.26;100.00
63715;BME280;49858;48.956;9.076;2023-04-16T11:34:53;99058.25;;;10.88;100.00
63715;BME280;49858;48.956;9.076;2023-04-16T11:37:30;99067.56;;;10.84;100.00
63715;BME280;49858;48.956;9.076;2023-04-16T11:40:00;99055.41;;;10.72;100.00
63715;BME280;49858;48.956;9.076;2023-04-16T11:42:30;99061.81;;;11.17;100.00
63715;BME280;49858;48.956;9.076;2023-04-16T11:44:58;99066.56;;;11.32;100.00
63715;BME280;49858;48.956;9.076;2023-04-16T11:47:28;99067.44;;;10.92;100.00
63715;BME280;49858;48.956;9.076;2023-04-16T11:50:15;99058.81;;;11.22;100.00
63715;BME280;49858;48.956;9.076;2023-04-16T11:52:43;99063.03;;;10.91;100.00
63715;BME280;49858;48.956;9.076;2023-04-16T11:55:16;99364.06;;;12.53;100.00
63715;BME280;49858;48.956;9.076;2023-04-16T11:57:44;99241.66;;;11.86;100.00
63715;BME280;49858;48.956;9.076;2023-04-16T12:00:13;99172.13;;;12.08;100.00
63715;BME280;49858;48.956;9.076;2023-04-16T12:02:42;99118.66;;;12.13;100.00
63715;BME280;49858;48.956;9.076;2023-04-16T12:05:29;99105.75;;;12.17;100.00
63715;BME280;49858;48.956;9.076;2023-04-16T12:07:58;99095.91;;;12.00;100.00
63715;BME280;49858;48.956;9.076;2023-04-16T12:10:26;99099.28;;;12.09;100.00
63715;BME280;49858;48.956;9.076;2023-04-16T12:13:08;99091.16;;;12.32;100.00
63715;BME280;49858;48.956;9.076;2023-04-16T12:15:46;99095.09;;;11.99;100.00
63715;BME280;49858;48.956;9.076;2023-04-16T12:18:14;99087.78;;;12.23;100.00
63715;BME280;49858;48.956;9.076;2023-04-16T12:20:45;99098.13;;;11.94;100.00
63715;BME280;49858;48.956;9.076;2023-04-16T12:23:22;99089.44;;;11.80;100.00
63715;BME280;49858;48.956;9.076;2023-04-16T12:25:53;99102.81;;;11.94;100.00
63715;BME280;49858;48.956;9.076;2023-04-16T12:28:31;99095.81;;;11.96;100.00
63715;BME280;49858;48.956;9.076;2023-04-16T12:30:59;99107.94;;;11.80;100.00
63715;BME280;49858;48.956;9.076;2023-04-16T12:33:27;99102.81;;;11.94;100.00
63715;BME280;49858;48.956;9.076;2023-04-16T12:35:58;99096.94;;;11.80;100.00
63715;BME280;49858;48.956;9.076;2023-04-16T12:38:27;99104.81;;;11.65;100.00
63715;BME280;49858;48.956;9.076;2023-04-16T12:40:55;99116.09;;;11.88;100.00
63715;BME280;49858;48.956;9.076;2023-04-16T12:43:24;99107.34;;;12.18;100.00
63715;BME280;49858;48.956;9.076;2023-04-16T12:45:52;99103.75;;;11.70;100.00
63715;BME280;49858;48.956;9.076;2023-04-16T12:48:23;99101.16;;;11.61;100.00
63715;BME280;49858;48.956;9.076;2023-04-16T12:50:52;99117.84;;;11.52;100.00
63715;BME280;49858;48.956;9.076;2023-04-16T12:53:21;99107.38;;;12.02;100.00
63715;BME280;49858;48.956;9.076;2023-04-16T12:55:49;99111.16;;;11.10;100.00
63715;BME280;49858;48.956;9.076;2023-04-16T12:58:17;99109.56;;;11.37;100.00
63715;BME280;49858;48.956;9.076;2023-04-16T13:00:45;99109.13;;;11.94;100.00
63715;BME280;49858;48.956;9.076;2023-04-16T13:03:13;99116.09;;;11.88;100.00